This is the latest recevied weather packets stored in our database for station/object KG7FOQ-13. If no packets are shown the sender has not sent any weather packets the latest 10 day(s).
| Time | Temp. | Humidity | Pressure | Rain* | Wind** | Luminosity | Snow |
|---|---|---|---|---|---|---|---|
| 1787814796 | 23.89° C | 34% | 1016.7 hPa | 0 mm | - | - | - |
| 1787814495 | 23.89° C | 35% | 1016.9 hPa | 0 mm | - | - | - |
| 1787814195 | 23.89° C | 35% | 1016.9 hPa | 0 mm | - | - | - |
| 1787813894 | 23.89° C | 35% | 1016.9 hPa | 0 mm | - | - | - |
| 1787813594 | 24.44° C | 35% | 1016.9 hPa | 0 mm | - | - | - |
| 1787813293 | 24.44° C | 34% | 1016.9 hPa | 0 mm | - | - | - |
| 1787812993 | 24.44° C | 34% | 1016.7 hPa | 0 mm | - | - | - |
| 1787812692 | 25° C | 33% | 1016.9 hPa | 0 mm | - | - | - |
| 1787812392 | 24.44° C | 33% | 1016.9 hPa | 0 mm | - | - | - |
| 1787812091 | 23.33° C | 37% | 1016.9 hPa | 0 mm | - | - | - |
| 1787811791 | 24.44° C | 33% | 1016.7 hPa | 0 mm | - | - | - |
| 1787811490 | 24.44° C | 33% | 1016.9 hPa | 0 mm | - | - | - |
| 1787811190 | 24.44° C | 33% | 1016.9 hPa | 0 mm | - | - | - |
| 1787810889 | 23.89° C | 34% | 1016.7 hPa | 0 mm | - | - | - |
| 1787810588 | 23.33° C | 35% | 1016.7 hPa | 0 mm | - | - | - |
| 1787810289 | 23.33° C | 37% | 1016.9 hPa | 0 mm | - | - | - |
| 1787809988 | 22.78° C | 39% | 1016.9 hPa | 0 mm | - | - | - |
| 1787809687 | 22.78° C | 38% | 1016.9 hPa | 0 mm | - | - | - |
| 1787809387 | 23.89° C | 35% | 1016.9 hPa | 0 mm | - | - | - |
| 1787809086 | 24.44° C | 32% | 1016.7 hPa | 0 mm | - | - | - |
| 1787808786 | 25.56° C | 30% | 1016.9 hPa | 0 mm | - | - | - |
| 1787808485 | 27.22° C | 27% | 1016.9 hPa | 0 mm | - | - | - |
| 1787808186 | 27.22° C | 26% | 1016.9 hPa | 0 mm | - | - | - |
| 1787807884 | 27.22° C | 27% | 1016.9 hPa | 0 mm | - | - | - |
| 1787807584 | 26.67° C | 28% | 1016.7 hPa | 0 mm | - | - | - |
* Rain latest hour (hover to see other rain measurements)
** Current wind speed in m/s (hover to see current wind gust speed)